Time;durP1;ratioP1;P1;durP2;ratioP2;P2;SDS_P1;SDS_P2;PMS_P1;PMS_P2;Temp;Humidity;BMP_temperature;BMP_pressure;BME280_temperature;BME280_humidity;BME280_pressure;Samples;Min_cycle;Max_cycle;Signal;HPM_P1;HPM_P2
2022/06/16 00:00:31;;;;;;;7.45;4.50;;;14.00;99.90;;;;;;5033718;28;20044;-74
2022/06/16 00:03:00;;;;;;;6.63;4.53;;;14.00;99.90;;;;;;5033176;28;20478;-74
2022/06/16 00:05:44;;;;;;;8.77;4.60;;;14.00;99.90;;;;;;5034252;28;20191;-74
2022/06/16 00:08:14;;;;;;;7.00;4.70;;;13.90;99.90;;;;;;5001339;28;20044;-74
2022/06/16 00:11:16;;;;;;;7.68;4.50;;;13.90;99.90;;;;;;5045129;28;20088;-74
2022/06/16 00:13:32;;;;;;;8.10;4.55;;;13.90;99.90;;;;;;5025516;28;20443;-74
2022/06/16 00:15:58;;;;;;;6.47;4.80;;;13.90;99.90;;;;;;5029260;28;20069;-74
2022/06/16 00:18:24;;;;;;;7.07;5.00;;;13.90;99.90;;;;;;5027990;28;20033;-74
2022/06/16 00:20:50;;;;;;;7.40;5.15;;;14.00;99.90;;;;;;5025732;28;20049;-74
2022/06/16 00:23:16;;;;;;;7.20;4.80;;;13.90;99.90;;;;;;5026165;28;20041;-74
2022/06/16 00:25:41;;;;;;;8.02;5.18;;;13.80;99.90;;;;;;5026631;28;20045;-73
2022/06/16 00:28:07;;;;;;;8.57;5.28;;;13.80;99.90;;;;;;5027335;28;20545;-74
2022/06/16 00:30:33;;;;;;;9.13;5.25;;;13.80;99.90;;;;;;5025779;28;20048;-74
2022/06/16 00:32:59;;;;;;;13.00;5.00;;;13.80;99.90;;;;;;5028224;28;20508;-74
2022/06/16 00:35:24;;;;;;;9.60;5.30;;;13.80;99.90;;;;;;5007233;28;20488;-74
2022/06/16 00:37:50;;;;;;;7.07;5.15;;;13.80;99.90;;;;;;5025022;28;20041;-72
2022/06/16 00:40:16;;;;;;;7.88;5.25;;;13.80;99.90;;;;;;5025666;28;20480;-74
2022/06/16 00:42:44;;;;;;;8.50;5.13;;;13.80;99.90;;;;;;5027015;28;20506;-73
2022/06/16 00:45:48;;;;;;;5.90;4.28;;;13.80;99.90;;;;;;5026375;28;20054;-74
2022/06/16 00:48:32;;;;;;;7.43;4.72;;;13.80;99.90;;;;;;5025333;28;20072;-73
2022/06/16 00:51:08;;;;;;;9.70;4.70;;;13.90;99.90;;;;;;5025051;28;20103;-72
2022/06/16 00:53:36;;;;;;;7.00;4.55;;;13.80;99.90;;;;;;5028150;28;20093;-74
2022/06/16 00:56:03;;;;;;;5.72;4.20;;;13.80;99.90;;;;;;5024479;28;20064;-73
2022/06/16 00:58:32;;;;;;;7.47;4.22;;;13.80;99.90;;;;;;5027349;28;20045;-74
2022/06/16 01:00:58;;;;;;;6.97;4.22;;;13.70;99.90;;;;;;5027118;28;20037;-74
2022/06/16 01:06:29;;;;;;;8.90;4.82;;;13.70;99.90;;;;;;5034733;28;20080;-74
2022/06/16 01:09:05;;;;;;;7.82;4.95;;;13.60;99.90;;;;;;5027738;28;20037;-74
2022/06/16 01:15:01;;;;;;;9.25;5.00;;;13.60;99.90;;;;;;5021555;28;20046;-74
2022/06/16 01:17:54;;;;;;;6.93;4.57;;;13.60;99.90;;;;;;5024210;28;20030;-74
2022/06/16 01:20:37;;;;;;;10.50;4.90;;;13.70;99.90;;;;;;5024895;28;20033;-74
2022/06/16 01:23:03;;;;;;;;;;;13.50;99.90;;;;;;5019387;28;20064;-74
2022/06/16 01:26:07;;;;;;;10.52;5.05;;;13.60;99.90;;;;;;5030881;28;19921;-74
2022/06/16 01:29:03;;;;;;;6.95;5.28;;;13.50;99.90;;;;;;5029957;28;20068;-74
2022/06/16 01:31:40;;;;;;;10.82;5.55;;;13.50;99.90;;;;;;5010080;28;20037;-74
2022/06/16 01:34:14;;;;;;;8.73;5.10;;;13.40;99.90;;;;;;5017826;28;21783;-74
2022/06/16 01:36:53;;;;;;;7.18;5.20;;;13.50;99.90;;;;;;5016019;28;20093;-74
2022/06/16 01:39:37;;;;;;;8.20;5.40;;;13.40;99.90;;;;;;4998445;28;20093;-74
2022/06/16 01:42:16;;;;;;;11.23;5.22;;;13.40;99.90;;;;;;5001106;28;20067;-74
2022/06/16 01:44:55;;;;;;;9.73;5.75;;;13.40;99.90;;;;;;5030816;28;20029;-74
2022/06/16 01:47:28;;;;;;;9.85;6.05;;;13.40;99.90;;;;;;5029767;28;20080;-74
2022/06/16 01:49:58;;;;;;;7.35;5.00;;;13.30;99.90;;;;;;5021971;28;20037;-74
2022/06/16 01:52:29;;;;;;;8.82;5.13;;;13.40;99.90;;;;;;5027078;28;20129;-74
2022/06/16 01:55:00;;;;;;;9.02;5.05;;;13.30;99.90;;;;;;5025035;28;20119;-74
2022/06/16 01:57:40;;;;;;;10.27;5.55;;;13.30;99.90;;;;;;5026577;28;20082;-74
2022/06/16 02:00:27;;;;;;;11.35;5.45;;;13.30;99.90;;;;;;5028410;28;20128;-74
2022/06/16 02:03:13;;;;;;;8.07;5.10;;;13.30;99.90;;;;;;5016489;28;20041;-74
2022/06/16 02:06:12;;;;;;;8.20;5.13;;;13.30;99.90;;;;;;5017023;28;20042;-74
2022/06/16 02:09:04;;;;;;;9.52;5.43;;;13.20;99.90;;;;;;5016626;28;20081;-74
2022/06/16 02:11:44;;;;;;;9.73;5.60;;;13.20;99.90;;;;;;5014036;28;20045;-74
2022/06/16 02:14:32;;;;;;;9.30;5.53;;;13.10;99.90;;;;;;5013902;28;20049;-74
2022/06/16 02:17:10;;;;;;;10.18;6.00;;;13.10;99.90;;;;;;4999322;28;20065;-73
2022/06/16 02:19:42;;;;;;;;;;;13.10;99.90;;;;;;5033658;28;20092;-74
2022/06/16 02:22:08;;;;;;;9.35;5.18;;;13.10;99.90;;;;;;5033221;28;19917;-74
2022/06/16 02:24:34;;;;;;;8.10;5.32;;;13.10;99.90;;;;;;5001167;28;20048;-73
2022/06/16 02:27:00;;;;;;;8.90;5.20;;;13.00;99.90;;;;;;5034539;28;21031;-74
2022/06/16 02:29:37;;;;;;;8.60;5.60;;;13.10;99.90;;;;;;5019607;28;20060;-74
2022/06/16 02:32:19;;;;;;;9.45;5.72;;;13.10;99.90;;;;;;5033461;28;20048;-74
2022/06/16 02:34:58;;;;;;;7.28;5.53;;;13.00;99.90;;;;;;5034171;28;20060;-74
2022/06/16 02:37:40;;;;;;;8.88;5.88;;;13.00;99.90;;;;;;5024463;28;20025;-74
2022/06/16 02:40:31;;;;;;;8.02;5.57;;;13.00;99.90;;;;;;5025738;28;20073;-74
2022/06/16 02:43:13;;;;;;;9.40;5.70;;;12.90;99.90;;;;;;5023830;28;20041;-74
2022/06/16 02:46:12;;;;;;;7.45;5.20;;;12.90;99.90;;;;;;5024948;28;20038;-74
2022/06/16 02:49:10;;;;;;;10.00;5.60;;;12.90;99.90;;;;;;5026204;28;20052;-74
2022/06/16 02:51:46;;;;;;;12.57;6.03;;;12.90;99.90;;;;;;4991016;28;20132;-73
2022/06/16 02:55:04;;;;;;;7.32;5.65;;;12.90;99.90;;;;;;5023542;28;20096;-73
2022/06/16 02:57:46;;;;;;;8.40;5.75;;;12.90;99.90;;;;;;5008892;28;20052;-74
2022/06/16 03:00:19;;;;;;;8.48;5.72;;;12.90;99.90;;;;;;5020974;28;20049;-74
2022/06/16 03:02:45;;;;;;;10.23;6.22;;;12.90;99.90;;;;;;5023901;28;20030;-72
2022/06/16 03:05:14;;;;;;;8.23;5.88;;;12.90;99.90;;;;;;5025531;28;20045;-74
2022/06/16 03:07:41;;;;;;;10.25;6.45;;;12.90;99.90;;;;;;5025251;28;20037;-74
2022/06/16 03:10:07;;;;;;;8.57;6.13;;;13.00;99.90;;;;;;5022525;28;20373;-74
2022/06/16 03:12:33;;;;;;;10.73;6.40;;;12.90;99.90;;;;;;5022239;28;20045;-74
2022/06/16 03:14:59;;;;;;;10.82;6.57;;;12.90;99.90;;;;;;5025649;28;20037;-74
2022/06/16 03:17:25;;;;;;;9.25;6.15;;;12.90;99.90;;;;;;5027953;28;20132;-74
2022/06/16 03:19:51;;;;;;;8.95;6.63;;;12.90;99.90;;;;;;5032098;28;20069;-74
2022/06/16 03:22:27;;;;;;;9.93;6.45;;;12.90;99.90;;;;;;5018452;28;20061;-74
2022/06/16 03:25:04;;;;;;;9.10;6.00;;;12.90;99.90;;;;;;5019432;28;20069;-74
2022/06/16 03:27:30;;;;;;;8.37;6.37;;;12.80;99.90;;;;;;5006310;28;20037;-74
2022/06/16 03:29:56;;;;;;;10.00;6.20;;;12.80;99.90;;;;;;5038137;28;20390;-74
2022/06/16 03:32:22;;;;;;;10.27;6.40;;;12.80;99.90;;;;;;5035208;28;20057;-74
2022/06/16 03:34:47;;;;;;;9.65;5.38;;;12.70;99.90;;;;;;5033090;28;20041;-74
2022/06/16 03:37:13;;;;;;;8.55;6.10;;;12.70;99.90;;;;;;5028465;28;20041;-73
2022/06/16 03:39:39;;;;;;;9.50;6.20;;;12.70;99.90;;;;;;5011472;28;20048;-74
2022/06/16 03:42:05;;;;;;;11.00;6.63;;;12.60;99.90;;;;;;5026971;28;20048;-74
2022/06/16 03:44:30;;;;;;;9.45;6.40;;;12.60;99.90;;;;;;5028143;28;20562;-74
2022/06/16 03:46:56;;;;;;;8.40;5.68;;;12.60;99.90;;;;;;5027710;28;20042;-74
2022/06/16 03:49:22;;;;;;;9.88;6.20;;;12.50;99.90;;;;;;5026087;28;20045;-74
2022/06/16 03:51:47;;;;;;;8.55;6.13;;;12.50;99.90;;;;;;5026064;28;20499;-74
2022/06/16 03:54:13;;;;;;;7.45;5.32;;;12.40;99.90;;;;;;5027493;28;20033;-74
2022/06/16 03:56:40;;;;;;;8.60;5.20;;;12.40;99.90;;;;;;5024865;28;20049;-74
2022/06/16 03:59:06;;;;;;;7.60;5.78;;;12.40;99.90;;;;;;5029017;28;20057;-74
2022/06/16 04:01:31;;;;;;;7.07;5.45;;;12.40;99.90;;;;;;5026227;28;20056;-74
2022/06/16 04:04:00;;;;;;;9.57;6.13;;;12.40;99.90;;;;;;5024768;28;20044;-74
2022/06/16 04:06:27;;;;;;;11.00;5.60;;;12.40;99.90;;;;;;5043211;28;20064;-73
2022/06/16 04:08:53;;;;;;;8.35;5.88;;;12.40;99.90;;;;;;5025945;28;20403;-73
2022/06/16 04:11:28;;;;;;;8.95;6.22;;;12.40;99.90;;;;;;5024468;28;20033;-74
2022/06/16 04:14:14;;;;;;;10.00;5.97;;;12.40;99.90;;;;;;5028592;28;20045;-72
2022/06/16 04:16:46;;;;;;;7.55;6.50;;;12.60;99.90;;;;;;5025716;28;20053;-74
2022/06/16 04:19:14;;;;;;;7.75;5.90;;;12.60;99.90;;;;;;5043573;28;20123;-73
2022/06/16 04:21:42;;;;;;;9.43;5.93;;;12.70;99.90;;;;;;5026440;28;20034;-74
2022/06/16 04:24:08;;;;;;;10.68;5.65;;;12.80;99.90;;;;;;5026764;28;20033;-74
2022/06/16 04:26:37;;;;;;;9.20;5.90;;;12.90;99.90;;;;;;5024138;28;20442;-74
2022/06/16 04:29:03;;;;;;;9.73;5.95;;;12.90;99.90;;;;;;5025463;28;20502;-74
2022/06/16 04:31:30;;;;;;;9.35;5.80;;;13.00;99.90;;;;;;5027204;28;20171;-74
2022/06/16 04:33:56;;;;;;;9.43;6.07;;;13.10;99.90;;;;;;5025814;28;20044;-74
2022/06/16 04:36:22;;;;;;;9.60;6.03;;;13.20;99.90;;;;;;5043912;28;20050;-74
2022/06/16 04:38:48;;;;;;;9.00;6.18;;;13.20;99.90;;;;;;5026768;28;20041;-74
2022/06/16 04:41:15;;;;;;;7.93;5.70;;;13.30;99.90;;;;;;5027204;28;20047;-73
2022/06/16 04:43:41;;;;;;;7.18;5.35;;;13.30;99.90;;;;;;5025587;28;20045;-73
2022/06/16 04:46:08;;;;;;;7.75;5.80;;;13.40;99.90;;;;;;5026574;28;20116;-73
2022/06/16 04:48:35;;;;;;;9.70;5.60;;;13.40;99.90;;;;;;5028756;28;20041;-73
2022/06/16 04:51:03;;;;;;;11.73;6.18;;;13.50;99.90;;;;;;5026643;28;20100;-74
2022/06/16 04:53:29;;;;;;;10.50;6.05;;;13.60;99.90;;;;;;5027782;28;20037;-74
2022/06/16 04:55:56;;;;;;;11.93;6.20;;;13.60;99.90;;;;;;5024605;28;20516;-74
2022/06/16 04:58:23;;;;;;;10.10;5.70;;;13.70;99.90;;;;;;5024938;28;20129;-74
2022/06/16 05:00:50;;;;;;;10.00;6.10;;;13.80;99.90;;;;;;5025641;28;20128;-74
2022/06/16 05:03:17;;;;;;;10.05;6.70;;;13.80;99.90;;;;;;5024402;28;20033;-74
2022/06/16 05:05:46;;;;;;;15.18;6.78;;;13.80;99.90;;;;;;5025838;28;20178;-74
2022/06/16 05:08:12;;;;;;;11.88;6.10;;;13.80;99.90;;;;;;5023784;28;20041;-74
2022/06/16 05:10:38;;;;;;;9.88;5.95;;;13.80;99.90;;;;;;5027879;28;20102;-74
2022/06/16 05:13:03;;;;;;;15.82;6.13;;;13.90;99.90;;;;;;5023925;28;20439;-74
2022/06/16 05:15:29;;;;;;;10.00;6.00;;;13.90;99.90;;;;;;5025976;28;20053;-74
2022/06/16 05:17:55;;;;;;;10.70;6.43;;;14.00;99.90;;;;;;5027181;28;20029;-74
2022/06/16 05:20:21;;;;;;;9.43;5.70;;;13.90;99.90;;;;;;5025250;28;20499;-74
2022/06/16 05:22:46;;;;;;;10.25;6.13;;;14.10;99.90;;;;;;5025798;28;20155;-74
2022/06/16 05:25:12;;;;;;;8.18;5.63;;;14.10;99.90;;;;;;5043435;28;20088;-74
2022/06/16 05:27:38;;;;;;;9.65;6.20;;;14.20;99.90;;;;;;5009048;28;20040;-74
2022/06/16 05:30:04;;;;;;;8.30;5.65;;;14.30;99.90;;;;;;5024488;28;20038;-74
2022/06/16 05:32:30;;;;;;;10.43;5.25;;;14.40;99.90;;;;;;5023446;28;20025;-74
2022/06/16 05:34:56;;;;;;;9.48;5.30;;;14.50;99.90;;;;;;5024094;28;20037;-74
2022/06/16 05:37:22;;;;;;;10.02;4.68;;;14.50;99.90;;;;;;5024325;28;20049;-74
2022/06/16 05:39:49;;;;;;;7.35;4.60;;;14.70;99.90;;;;;;5014938;28;20061;-73
2022/06/16 05:42:16;;;;;;;11.07;4.68;;;14.70;99.90;;;;;;5031095;28;20037;-74
2022/06/16 05:44:42;;;;;;;11.00;4.70;;;14.80;99.90;;;;;;5029048;28;20033;-73
2022/06/16 05:47:07;;;;;;;9.18;4.65;;;14.80;99.90;;;;;;5031971;28;20052;-74
2022/06/16 05:49:38;;;;;;;5.97;4.22;;;14.80;99.90;;;;;;5034465;28;20038;-74
2022/06/16 05:52:24;;;;;;;6.63;4.20;;;14.80;99.90;;;;;;5024238;28;20084;-74
2022/06/16 05:54:50;;;;;;;10.00;4.07;;;14.90;99.90;;;;;;5023842;28;20050;-74
2022/06/16 05:57:15;;;;;;;8.48;4.22;;;14.90;99.90;;;;;;5022093;28;20052;-73
2022/06/16 05:59:41;;;;;;;8.25;3.70;;;15.10;99.90;;;;;;5024418;28;20037;-73
2022/06/16 06:02:15;;;;;;;7.03;3.70;;;15.20;99.90;;;;;;5026479;28;20510;-73
2022/06/16 06:04:41;;;;;;;8.68;3.67;;;15.20;99.90;;;;;;5024793;28;20192;-74
2022/06/16 06:07:06;;;;;;;6.88;3.55;;;15.30;99.90;;;;;;5024431;28;20041;-73
2022/06/16 06:16:25;;;;;;;6.78;2.75;;;15.50;99.90;;;;;;5020873;28;20192;-73
2022/06/16 06:18:19;;;;;;;9.48;3.85;;;15.70;99.90;;;;;;5044750;28;20484;-74
2022/06/16 06:20:46;;;;;;;7.15;3.35;;;15.70;99.90;;;;;;5030333;28;20041;-73
2022/06/16 06:23:12;;;;;;;7.38;2.97;;;15.80;99.90;;;;;;4994783;28;20369;-73
2022/06/16 06:25:38;;;;;;;6.00;2.78;;;15.80;99.90;;;;;;5022098;28;20128;-73
2022/06/16 06:28:03;;;;;;;4.97;2.70;;;16.00;99.90;;;;;;5027218;28;20076;-74
2022/06/16 06:30:30;;;;;;;6.85;3.10;;;16.10;99.90;;;;;;5029226;28;20081;-73
2022/06/16 06:32:57;;;;;;;7.07;3.25;;;16.10;99.90;;;;;;5021847;28;20036;-73
2022/06/16 06:35:24;;;;;;;8.02;3.45;;;16.20;99.90;;;;;;5027753;28;20045;-73
2022/06/16 06:37:51;;;;;;;7.40;2.83;;;16.30;99.90;;;;;;5011550;28;20045;-73
2022/06/16 06:40:29;;;;;;;7.22;3.30;;;16.40;99.90;;;;;;5029414;28;20038;-73
2022/06/16 06:42:55;;;;;;;4.20;2.47;;;16.50;99.90;;;;;;5023416;28;20049;-73
2022/06/16 06:45:21;;;;;;;7.03;2.47;;;16.60;99.90;;;;;;5020961;28;20041;-73
2022/06/16 06:47:47;;;;;;;6.50;2.50;;;16.60;99.90;;;;;;5024561;28;20049;-73
2022/06/16 06:50:38;;;;;;;25.50;4.13;;;16.70;99.90;;;;;;5025147;28;20052;-73
2022/06/16 06:53:05;;;;;;;14.60;3.53;;;16.90;99.90;;;;;;5008473;28;20118;-73
2022/06/16 06:55:31;;;;;;;17.60;3.20;;;16.90;99.90;;;;;;5029164;28;20069;-73
2022/06/16 06:57:57;;;;;;;23.80;4.20;;;17.00;99.90;;;;;;5028048;28;20084;-73
2022/06/16 07:00:26;;;;;;;11.52;1.98;;;17.10;99.90;;;;;;5024914;28;20124;-74
2022/06/16 07:02:52;;;;;;;10.68;2.42;;;17.20;99.90;;;;;;5028704;28;20042;-73
2022/06/16 07:05:18;;;;;;;98.38;12.35;;;17.30;99.90;;;;;;5027519;28;20044;-73
2022/06/16 07:07:44;;;;;;;23.33;4.10;;;17.40;99.90;;;;;;5027652;28;20155;-73
2022/06/16 07:10:11;;;;;;;85.95;9.73;;;17.50;99.90;;;;;;5028764;28;20750;-73
2022/06/16 07:12:37;;;;;;;152.98;17.48;;;17.50;99.90;;;;;;4994885;28;20136;-73
2022/06/16 07:15:04;;;;;;;52.72;6.65;;;17.60;99.90;;;;;;5026827;28;20613;-73
2022/06/16 07:17:29;;;;;;;86.97;9.55;;;17.70;99.90;;;;;;5030271;28;20047;-73
2022/06/16 07:19:55;;;;;;;62.03;7.93;;;17.80;99.90;;;;;;5025302;28;20049;-73
2022/06/16 07:22:21;;;;;;;52.20;6.90;;;17.90;99.90;;;;;;5026975;28;20041;-73
2022/06/16 07:24:48;;;;;;;7.90;2.00;;;18.10;99.90;;;;;;5025797;28;20038;-73
2022/06/16 07:27:15;;;;;;;19.15;3.63;;;18.10;99.90;;;;;;5024552;28;20033;-73
2022/06/16 07:29:41;;;;;;;14.82;2.95;;;18.30;99.90;;;;;;5022683;28;20042;-73
2022/06/16 07:32:07;;;;;;;15.60;3.67;;;18.40;99.90;;;;;;5022790;28;20083;-73
2022/06/16 07:34:33;;;;;;;14.68;3.40;;;18.50;99.90;;;;;;5038817;28;20092;-73
2022/06/16 07:36:58;;;;;;;167.27;33.50;;;18.50;99.90;;;;;;5026911;28;20034;-73
2022/06/16 07:39:24;;;;;;;96.32;22.60;;;18.60;99.90;;;;;;5014979;28;20087;-73
2022/06/16 07:41:50;;;;;;;16.17;4.10;;;18.80;99.90;;;;;;5026184;28;20492;-73
2022/06/16 07:44:16;;;;;;;14.73;4.03;;;18.80;99.90;;;;;;5027321;28;20090;-73
2022/06/16 07:46:46;;;;;;;10.20;3.55;;;18.90;99.90;;;;;;5021499;28;20065;-73
2022/06/16 07:49:15;;;;;;;3.65;1.50;;;19.00;99.90;;;;;;5044423;28;20056;-73
2022/06/16 07:51:42;;;;;;;3.35;1.33;;;19.00;99.90;;;;;;5020851;28;20559;-73
2022/06/16 07:54:08;;;;;;;6.35;1.83;;;19.10;99.90;;;;;;5024271;28;20064;-73
2022/06/16 07:56:34;;;;;;;4.32;1.77;;;19.30;99.90;;;;;;5026191;28;20049;-73
2022/06/16 07:59:00;;;;;;;7.35;2.00;;;19.40;99.90;;;;;;5027441;28;20034;-73
2022/06/16 08:01:26;;;;;;;16.63;3.17;;;19.60;99.90;;;;;;5000773;28;20045;-73
2022/06/16 08:03:52;;;;;;;11.75;2.22;;;19.60;99.90;;;;;;5003156;28;20045;-73
2022/06/16 08:06:26;;;;;;;12.48;2.88;;;19.70;99.90;;;;;;5019839;28;20115;-74
2022/06/16 08:08:53;;;;;;;3.03;1.23;;;19.80;99.90;;;;;;5037935;28;20072;-73
2022/06/16 08:14:04;;;;;;;2.63;1.27;;;19.90;99.10;;;;;;5034706;28;20446;-73
2022/06/16 08:16:32;;;;;;;3.83;1.48;;;20.00;97.70;;;;;;5030229;28;20040;-73
2022/06/16 08:18:59;;;;;;;3.75;1.42;;;20.10;95.70;;;;;;5031195;28;20099;-73
2022/06/16 08:21:25;;;;;;;3.08;1.30;;;20.10;95.30;;;;;;5028605;28;20055;-73
2022/06/16 08:23:51;;;;;;;4.07;1.30;;;20.20;97.20;;;;;;5031633;28;20132;-73
2022/06/16 08:26:16;;;;;;;4.30;1.25;;;20.40;97.20;;;;;;5031930;28;20072;-72
2022/06/16 08:28:42;;;;;;;78.55;11.80;;;20.40;96.30;;;;;;5032342;28;20092;-73
2022/06/16 08:31:08;;;;;;;28.75;5.30;;;20.50;94.40;;;;;;5011260;28;20041;-73
2022/06/16 08:33:35;;;;;;;15.35;2.40;;;20.60;94.00;;;;;;5034647;28;20056;-73
2022/06/16 08:36:01;;;;;;;19.20;4.10;;;20.70;93.30;;;;;;5016867;28;20508;-73
2022/06/16 08:38:27;;;;;;;16.25;2.40;;;20.80;93.60;;;;;;5014912;28;20033;-73
2022/06/16 08:41:12;;;;;;;8.10;1.30;;;20.90;92.80;;;;;;5046872;28;20041;-73
2022/06/16 08:44:00;;;;;;;3.22;1.23;;;21.00;89.40;;;;;;5043754;28;20095;-74
2022/06/16 08:46:34;;;;;;;17.02;2.45;;;21.10;90.30;;;;;;5028172;28;20037;-72
2022/06/16 08:49:27;;;;;;;10.20;2.28;;;21.30;88.00;;;;;;5030520;28;20077;-73
2022/06/16 08:52:28;;;;;;;19.42;3.38;;;21.30;90.50;;;;;;5043744;28;20395;-73
2022/06/16 08:55:24;;;;;;;35.65;5.00;;;21.40;90.60;;;;;;4985432;28;20496;-73
2022/06/16 08:57:59;;;;;;;37.47;5.43;;;21.60;83.10;;;;;;5028439;28;20064;-73
2022/06/16 09:00:43;;;;;;;8.48;2.13;;;21.60;82.80;;;;;;5028383;28;20068;-73
2022/06/16 09:03:15;;;;;;;53.33;7.82;;;21.60;85.60;;;;;;5027806;28;20041;-73
2022/06/16 09:05:50;;;;;;;13.80;2.65;;;21.70;84.10;;;;;;5026856;28;20044;-73
2022/06/16 09:08:41;;;;;;;7.68;2.60;;;21.80;84.00;;;;;;5029160;28;20037;-73
2022/06/16 09:11:32;;;;;;;5.63;1.92;;;21.90;84.80;;;;;;5027354;28;20091;-73
2022/06/16 09:14:19;;;;;;;4.60;1.40;;;22.10;84.20;;;;;;5028209;28;20037;-73
2022/06/16 09:17:11;;;;;;;6.55;1.70;;;22.20;87.20;;;;;;5022523;28;20376;-71
2022/06/16 09:20:08;;;;;;;4.95;1.65;;;22.30;80.70;;;;;;5030291;28;20029;-73
2022/06/16 09:23:03;;;;;;;4.75;2.10;;;22.40;79.70;;;;;;5020273;28;20053;-73
2022/06/16 09:25:51;;;;;;;11.27;1.92;;;22.60;78.10;;;;;;5023782;28;20033;-73
2022/06/16 09:28:28;;;;;;;6.20;2.00;;;22.60;75.70;;;;;;5028840;28;20037;-73
2022/06/16 09:30:57;;;;;;;9.95;2.10;;;22.60;76.80;;;;;;5012149;28;20044;-74
2022/06/16 09:33:34;;;;;;;6.03;2.13;;;22.70;76.90;;;;;;5030781;28;20041;-74
2022/06/16 09:36:07;;;;;;;5.97;2.17;;;22.70;76.50;;;;;;5029241;28;20049;-74
2022/06/16 09:38:41;;;;;;;8.15;2.65;;;22.80;70.00;;;;;;5029311;28;20103;-73
2022/06/16 09:44:02;;;;;;;4.57;1.80;;;23.00;74.80;;;;;;5024076;28;20045;-73
2022/06/16 09:46:35;;;;;;;5.73;1.80;;;23.00;72.30;;;;;;5030577;28;20040;-73
2022/06/16 09:49:17;;;;;;;4.88;2.05;;;23.10;73.80;;;;;;5031507;28;20038;-73
2022/06/16 09:51:54;;;;;;;10.70;2.97;;;23.30;74.30;;;;;;5022799;28;20046;-73
2022/06/16 09:54:29;;;;;;;11.45;2.53;;;23.40;72.90;;;;;;5027423;28;20042;-73
2022/06/16 09:57:10;;;;;;;19.50;3.13;;;23.50;71.90;;;;;;5031240;28;20048;-73
2022/06/16 09:59:44;;;;;;;7.88;2.00;;;23.60;74.10;;;;;;5014386;28;20069;-74
2022/06/16 10:02:35;;;;;;;4.28;1.85;;;23.80;72.20;;;;;;5029021;28;20060;-73
2022/06/16 10:05:01;;;;;;;4.40;1.85;;;24.00;75.60;;;;;;5026871;28;20133;-74
2022/06/16 10:07:33;;;;;;;14.88;3.83;;;24.00;70.90;;;;;;5028734;28;20521;-73
2022/06/16 10:10:08;;;;;;;30.27;3.70;;;24.10;69.60;;;;;;5030160;28;20132;-74
2022/06/16 10:13:02;;;;;;;5.65;2.60;;;24.20;71.30;;;;;;5031369;28;20042;-73
2022/06/16 10:15:35;;;;;;;11.80;3.03;;;24.30;68.00;;;;;;5027457;28;20111;-73
2022/06/16 10:18:02;;;;;;;18.23;4.05;;;24.30;69.50;;;;;;5027816;28;20037;-73
2022/06/16 10:20:29;;;;;;;8.38;2.13;;;24.40;67.90;;;;;;5028885;28;20030;-73
2022/06/16 10:23:04;;;;;;;4.80;2.20;;;24.50;70.30;;;;;;5021198;28;20071;-73
2022/06/16 10:25:36;;;;;;;6.15;2.20;;;24.80;70.60;;;;;;5025402;28;20065;-74
2022/06/16 10:28:35;;;;;;;4.80;2.10;;;24.50;65.60;;;;;;5045901;28;20049;-74
2022/06/16 10:31:03;;;;;;;3.00;1.80;;;24.60;68.30;;;;;;5023328;28;20120;-73
2022/06/16 10:33:35;;;;;;;3.45;1.83;;;24.80;67.00;;;;;;5024633;28;20044;-74
2022/06/16 10:36:16;;;;;;;;;;;24.90;69.00;;;;;;5028112;28;20136;-74
2022/06/16 10:38:45;;;;;;;4.18;2.13;;;25.00;63.20;;;;;;5027684;28;19924;-74
2022/06/16 10:41:32;;;;;;;7.45;2.15;;;25.10;67.70;;;;;;5026130;28;20041;-73
2022/06/16 10:44:03;;;;;;;4.53;1.85;;;25.30;64.70;;;;;;5028109;28;20052;-74
2022/06/16 10:46:36;;;;;;;5.20;2.25;;;25.30;62.10;;;;;;5026030;28;20038;-73
2022/06/16 10:49:06;;;;;;;5.25;2.08;;;25.20;63.10;;;;;;5045330;28;20048;-73
2022/06/16 10:51:35;;;;;;;4.70;2.10;;;25.10;63.60;;;;;;4991339;28;20037;-73
2022/06/16 10:54:36;;;;;;;5.28;2.42;;;25.10;64.20;;;;;;5039452;28;20083;-73
2022/06/16 10:57:18;;;;;;;5.57;2.03;;;25.20;63.30;;;;;;5010995;28;20059;-73
2022/06/16 11:00:26;;;;;;;5.47;2.05;;;25.40;62.20;;;;;;5014655;28;20039;-73
2022/06/16 11:03:04;;;;;;;4.68;2.15;;;25.60;62.10;;;;;;4986657;28;20053;-73
2022/06/16 11:05:33;;;;;;;5.80;2.40;;;25.70;61.70;;;;;;5047468;28;20041;-73
2022/06/16 11:08:11;;;;;;;4.53;2.10;;;25.80;62.00;;;;;;5046504;28;20037;-74
2022/06/16 11:10:40;;;;;;;5.68;2.28;;;26.00;61.40;;;;;;5030041;28;20033;-73
2022/06/16 11:13:13;;;;;;;5.57;2.47;;;26.20;61.10;;;;;;5031256;28;21838;-73
2022/06/16 11:15:42;;;;;;;6.43;2.40;;;26.40;58.70;;;;;;5032774;28;20037;-73
2022/06/16 11:18:15;;;;;;;5.72;2.05;;;26.40;58.60;;;;;;5033463;28;20075;-73
2022/06/16 11:20:48;;;;;;;3.50;1.90;;;26.60;58.40;;;;;;5011879;28;20049;-74
2022/06/16 11:23:26;;;;;;;6.65;2.20;;;26.50;59.70;;;;;;5032462;28;20069;-73
2022/06/16 11:26:09;;;;;;;6.60;2.28;;;26.70;57.90;;;;;;5030950;28;20480;-74
2022/06/16 11:28:50;;;;;;;5.07;2.13;;;26.80;55.70;;;;;;5029404;28;20164;-73
2022/06/16 11:31:22;;;;;;;5.75;2.33;;;27.00;56.20;;;;;;5027393;28;20040;-73
2022/06/16 11:34:12;;;;;;;3.92;2.05;;;27.30;56.10;;;;;;5026058;28;20045;-74
2022/06/16 11:37:00;;;;;;;5.32;1.92;;;27.30;57.00;;;;;;5026040;28;20089;-73
2022/06/16 11:39:48;;;;;;;5.32;1.80;;;27.50;54.80;;;;;;5028839;28;20048;-74
2022/06/16 11:42:51;;;;;;;6.05;2.03;;;27.60;52.00;;;;;;5028282;28;20047;-73
2022/06/16 11:45:41;;;;;;;4.80;1.90;;;27.70;54.50;;;;;;5027125;28;20128;-73
2022/06/16 11:48:18;;;;;;;4.38;1.80;;;27.90;56.40;;;;;;5011770;28;20080;-73
2022/06/16 11:51:20;;;;;;;3.72;1.90;;;28.00;53.20;;;;;;5028742;28;20053;-73
2022/06/16 11:54:02;;;;;;;3.28;1.80;;;27.70;52.50;;;;;;5027482;28;20047;-74
2022/06/16 11:56:42;;;;;;;5.38;1.80;;;27.40;52.20;;;;;;5030648;28;20488;-73
2022/06/16 11:59:46;;;;;;;2.78;1.60;;;27.20;54.00;;;;;;5028128;28;20029;-74
2022/06/16 12:02:46;;;;;;;2.95;1.52;;;27.50;53.60;;;;;;5015171;28;22477;-73
2022/06/16 12:05:20;;;;;;;4.07;1.60;;;27.70;52.40;;;;;;5027735;28;20049;-73
2022/06/16 12:07:52;;;;;;;5.35;1.88;;;27.60;53.20;;;;;;5031341;28;20046;-73
2022/06/16 12:10:21;;;;;;;5.18;1.88;;;27.70;51.90;;;;;;5028750;28;20117;-73
2022/06/16 12:12:49;;;;;;;4.53;1.70;;;27.90;52.60;;;;;;5030544;28;20037;-73
2022/06/16 12:15:24;;;;;;;4.65;2.10;;;28.00;52.60;;;;;;5026260;28;20037;-73
2022/06/16 12:18:12;;;;;;;5.40;1.60;;;28.30;51.00;;;;;;5026248;28;20045;-73
2022/06/16 12:20:57;;;;;;;5.50;1.70;;;28.40;53.40;;;;;;5032479;28;20041;-73
2022/06/16 12:23:30;;;;;;;3.67;1.88;;;28.30;51.40;;;;;;5031598;28;20042;-73
2022/06/16 12:26:11;;;;;;;3.65;1.60;;;28.30;50.40;;;;;;5032812;28;20124;-73
2022/06/16 12:28:47;;;;;;;5.65;1.98;;;28.30;51.40;;;;;;5024917;28;20580;-72
2022/06/16 12:31:38;;;;;;;3.80;1.80;;;28.30;50.30;;;;;;5027875;28;20090;-73
2022/06/16 12:34:42;;;;;;;4.68;2.13;;;28.40;50.80;;;;;;5025487;28;20060;-72
2022/06/16 12:37:23;;;;;;;3.63;1.83;;;28.50;49.40;;;;;;5032299;28;20124;-73
2022/06/16 12:40:01;;;;;;;2.97;1.67;;;28.20;50.00;;;;;;5024100;28;20076;-74
2022/06/16 12:42:45;;;;;;;3.90;1.55;;;28.00;51.70;;;;;;5025698;28;20037;-74
2022/06/16 12:45:26;;;;;;;5.38;1.77;;;27.70;52.70;;;;;;5024764;28;20038;-73
2022/06/16 12:48:04;;;;;;;4.45;1.80;;;27.70;51.90;;;;;;5028714;28;20461;-73
2022/06/16 12:50:37;;;;;;;5.70;1.90;;;27.80;50.30;;;;;;5025616;28;20064;-72
2022/06/16 12:53:27;;;;;;;4.55;1.77;;;28.10;50.90;;;;;;5022177;28;20045;-72
2022/06/16 12:56:08;;;;;;;3.72;1.52;;;28.30;52.30;;;;;;5020490;28;20132;-74
2022/06/16 12:58:49;;;;;;;4.25;1.75;;;28.40;49.40;;;;;;5025764;28;20041;-73
2022/06/16 13:01:15;;;;;;;5.53;1.55;;;28.60;50.90;;;;;;5006508;28;20099;-74
2022/06/16 13:04:01;;;;;;;4.55;1.67;;;28.50;49.40;;;;;;5021345;28;20076;-74
2022/06/16 13:06:29;;;;;;;4.90;2.00;;;28.40;49.50;;;;;;5023187;28;20535;-74
2022/06/16 13:09:00;;;;;;;5.50;1.67;;;28.20;50.90;;;;;;5023000;28;20048;-74
2022/06/16 13:11:33;;;;;;;4.83;1.83;;;28.10;53.10;;;;;;5024549;28;20041;-74
2022/06/16 13:14:10;;;;;;;3.03;1.60;;;28.00;51.00;;;;;;5023052;28;20299;-73
2022/06/16 13:16:41;;;;;;;1.92;1.50;;;28.00;50.90;;;;;;5021937;28;20069;-73
2022/06/16 13:19:18;;;;;;;4.22;1.60;;;27.90;50.90;;;;;;5024595;28;20045;-74
2022/06/16 13:21:51;;;;;;;5.75;1.95;;;28.10;50.10;;;;;;5002111;28;20041;-73
2022/06/16 13:24:23;;;;;;;4.18;1.80;;;28.30;50.10;;;;;;5027224;28;20044;-74
2022/06/16 13:27:13;;;;;;;5.60;1.90;;;28.60;48.80;;;;;;5008365;28;20038;-74
2022/06/16 13:30:02;;;;;;;4.95;1.75;;;28.40;49.50;;;;;;5044948;28;20393;-74
2022/06/16 13:32:41;;;;;;;6.07;1.58;;;28.20;51.20;;;;;;4992638;28;20052;-74
2022/06/16 13:35:13;;;;;;;3.30;1.50;;;27.80;51.50;;;;;;5011150;28;20044;-74
2022/06/16 13:37:42;;;;;;;4.40;1.75;;;27.50;51.00;;;;;;5024974;28;20050;-74